Time,TemperatureF,DewpointF,PressureIn,WindDirection,WindDirectionDegrees,WindSpeedMPH,WindSpeedGustMPH,Humidity,HourlyPrecipIn,Conditions,Clouds,dailyrainin,SoftwareType,DateUTC
2013-09-01 08:13:00,72.0,65.1,29.59,North,0,0.0,1.0,79,0.00,,,0.00,VWS V14.00,2013-09-01 12:13:00,
2013-09-01 08:14:00,72.0,65.1,29.59,North,0,0.0,1.0,79,0.00,,,0.00,VWS V14.00,2013-09-01 12:14:00,
2013-09-01 08:19:00,72.0,65.1,29.59,NNW,338,0.0,1.0,79,0.00,,,0.00,VWS V14.00,2013-09-01 12:19:00,
2013-09-01 08:24:00,72.0,65.5,29.59,NW,315,0.0,1.0,80,0.00,,,0.00,VWS V14.00,2013-09-01 12:24:00,
2013-09-01 08:29:00,72.0,65.5,29.59,SSW,202,0.0,1.0,80,0.00,,,0.00,VWS V14.00,2013-09-01 12:29:00,
2013-09-01 08:34:00,72.1,65.6,29.59,SSE,158,0.0,1.0,80,0.00,,,0.00,VWS V14.00,2013-09-01 12:34:00,
2013-09-01 08:39:00,72.1,65.6,29.59,ESE,112,0.0,1.0,80,0.00,,,0.00,VWS V14.00,2013-09-01 12:39:00,
2013-09-01 08:44:00,72.3,65.8,29.59,South,180,0.0,1.0,80,0.00,,,0.00,VWS V14.00,2013-09-01 12:44:00,
2013-09-01 08:49:00,72.3,65.8,29.59,South,180,0.0,1.0,80,0.00,,,0.00,VWS V14.00,2013-09-01 12:49:00,
2013-09-01 08:54:00,72.5,66.0,29.59,WSW,248,0.0,1.0,80,0.00,,,0.00,VWS V14.00,2013-09-01 12:54:00,
2013-09-01 08:59:00,72.7,66.2,29.59,NW,315,0.0,1.0,80,0.00,,,0.00,VWS V14.00,2013-09-01 12:59:00,
2013-09-01 09:04:00,72.7,66.2,29.59,East,90,0.0,1.0,80,0.00,,,0.00,VWS V14.00,2013-09-01 13:04:00,
2013-09-01 09:09:00,72.7,66.5,29.59,North,0,0.0,1.0,81,0.00,,,0.00,VWS V14.00,2013-09-01 13:09:00,
2013-09-01 09:14:00,72.7,66.5,29.59,South,180,0.0,1.0,81,0.00,,,0.00,VWS V14.00,2013-09-01 13:14:00,
2013-09-01 09:19:00,72.9,66.7,29.59,SW,225,0.0,1.0,81,0.00,,,0.00,VWS V14.00,2013-09-01 13:19:00,
2013-09-01 09:24:00,72.9,66.7,29.59,ESE,112,0.0,1.0,81,0.00,,,0.00,VWS V14.00,2013-09-01 13:24:00,
2013-09-01 09:29:00,72.7,66.9,29.59,WSW,248,0.0,1.0,82,0.00,,,0.00,VWS V14.00,2013-09-01 13:29:00,
2013-09-01 09:34:00,72.1,66.3,29.59,SW,225,0.0,1.0,82,0.00,,,0.00,VWS V14.00,2013-09-01 13:34:00,
2013-09-01 09:39:00,72.0,66.5,29.62,WSW,248,0.0,1.0,83,0.00,,,0.00,VWS V14.00,2013-09-01 13:39:00,
2013-09-01 09:44:00,71.8,66.3,29.62,WSW,248,0.0,1.0,83,0.00,,,0.00,VWS V14.00,2013-09-01 13:44:00,
2013-09-01 09:49:00,71.8,66.7,29.62,SW,225,0.0,1.0,84,0.00,,,0.00,VWS V14.00,2013-09-01 13:49:00,
2013-09-01 09:54:00,71.8,66.7,29.62,WSW,248,0.0,1.0,84,0.00,,,0.00,VWS V14.00,2013-09-01 13:54:00,
2013-09-01 09:59:00,72.0,66.9,29.62,West,270,0.0,1.0,84,0.00,,,0.00,VWS V14.00,2013-09-01 13:59:00,
2013-09-01 10:04:00,71.8,66.7,29.62,NW,315,0.0,1.0,84,0.00,,,0.00,VWS V14.00,2013-09-01 14:04:00,
2013-09-01 10:09:00,71.8,66.7,29.62,South,180,0.0,1.0,84,0.00,,,0.00,VWS V14.00,2013-09-01 14:09:00,
2013-09-01 10:14:00,71.8,66.7,29.62,WNW,292,0.0,1.0,84,0.00,,,0.00,VWS V14.00,2013-09-01 14:14:00,
2013-09-01 10:19:00,71.8,67.0,29.62,West,270,0.0,1.0,85,0.00,,,0.00,VWS V14.00,2013-09-01 14:19:00,
2013-09-01 10:24:00,72.0,67.2,29.62,South,180,0.0,1.0,85,0.00,,,0.00,VWS V14.00,2013-09-01 14:24:00,
2013-09-01 10:29:00,72.0,67.2,29.62,North,0,0.0,1.0,85,0.00,,,0.00,VWS V14.00,2013-09-01 14:29:00,
2013-09-01 10:34:00,72.0,67.2,29.62,NNW,338,0.0,1.0,85,0.00,,,0.00,VWS V14.00,2013-09-01 14:34:00,
2013-09-01 10:39:00,72.0,67.2,29.62,NW,315,0.0,1.0,85,0.00,,,0.00,VWS V14.00,2013-09-01 14:39:00,
2013-09-01 10:44:00,72.1,67.4,29.62,SSW,202,0.0,1.0,85,0.00,,,0.00,VWS V14.00,2013-09-01 14:44:00,
2013-09-01 10:49:00,72.1,67.4,29.62,SW,225,0.0,1.0,85,0.00,,,0.00,VWS V14.00,2013-09-01 14:49:00,
2013-09-01 10:54:00,72.3,67.2,29.62,North,0,0.0,1.0,84,0.00,,,0.00,VWS V14.00,2013-09-01 14:54:00,
2013-09-01 10:59:00,72.5,67.4,29.62,NW,315,0.0,1.0,84,0.00,,,0.00,VWS V14.00,2013-09-01 14:59:00,
2013-09-01 11:04:00,72.3,66.9,29.62,West,270,0.0,1.0,83,0.00,,,0.00,VWS V14.00,2013-09-01 15:04:00,
2013-09-01 11:09:00,72.0,66.5,29.59,NW,315,0.0,1.0,83,0.00,,,0.00,VWS V14.00,2013-09-01 15:09:00,
2013-09-01 11:14:00,71.8,66.7,29.59,WSW,248,0.0,1.0,84,0.00,,,0.00,VWS V14.00,2013-09-01 15:14:00,
2013-09-01 11:19:00,72.0,66.9,29.59,SW,225,0.0,1.0,84,0.00,,,0.00,VWS V14.00,2013-09-01 15:19:00,
2013-09-01 11:24:00,72.0,66.9,29.59,South,180,0.0,1.0,84,0.00,,,0.00,VWS V14.00,2013-09-01 15:24:00,
2013-09-01 11:29:00,72.1,67.4,29.59,NNW,338,0.0,1.0,85,0.00,,,0.00,VWS V14.00,2013-09-01 15:29:00,
2013-09-01 11:34:00,72.5,67.7,29.59,NW,315,0.0,1.0,85,0.00,,,0.00,VWS V14.00,2013-09-01 15:34:00,
2013-09-01 11:39:00,72.5,67.7,29.59,East,90,0.0,1.0,85,0.00,,,0.00,VWS V14.00,2013-09-01 15:39:00,
2013-09-01 11:44:00,72.9,68.4,29.59,WSW,248,0.0,1.0,86,0.00,,,0.00,VWS V14.00,2013-09-01 15:44:00,
2013-09-01 11:49:00,72.9,68.1,29.59,SSW,202,0.0,1.0,85,0.00,,,0.00,VWS V14.00,2013-09-01 15:49:00,
2013-09-01 11:54:00,72.9,67.8,29.59,North,0,0.0,1.0,84,0.00,,,0.00,VWS V14.00,2013-09-01 15:54:00,
2013-09-01 11:59:00,72.9,67.8,29.59,East,90,0.0,1.0,84,0.00,,,0.00,VWS V14.00,2013-09-01 15:59:00,
2013-09-01 12:04:00,72.9,67.8,29.59,North,0,0.0,1.0,84,0.00,,,0.00,VWS V14.00,2013-09-01 16:04:00,
2013-09-01 12:09:00,72.7,67.6,29.59,North,0,0.0,1.0,84,0.00,,,0.00,VWS V14.00,2013-09-01 16:09:00,
2013-09-01 12:14:00,72.7,67.9,29.59,WNW,292,0.0,1.0,85,0.00,,,0.00,VWS V14.00,2013-09-01 16:14:00,
2013-09-01 12:19:00,72.5,67.7,29.59,WNW,292,0.0,1.0,85,0.00,,,0.00,VWS V14.00,2013-09-01 16:19:00,
2013-09-01 12:24:00,72.3,67.6,29.59,SW,225,0.0,1.0,85,0.00,,,0.00,VWS V14.00,2013-09-01 16:24:00,
2013-09-01 12:29:00,72.5,68.1,29.59,SSW,202,0.0,1.0,86,0.00,,,0.00,VWS V14.00,2013-09-01 16:29:00,
2013-09-01 12:34:00,72.5,68.1,29.59,WSW,248,0.0,1.0,86,0.00,,,0.00,VWS V14.00,2013-09-01 16:34:00,
2013-09-01 12:39:00,72.3,68.2,29.59,West,270,0.0,1.0,87,0.00,,,0.00,VWS V14.00,2013-09-01 16:39:00,
2013-09-01 12:44:00,72.3,68.6,29.59,SW,225,0.0,1.0,88,0.00,,,0.00,VWS V14.00,2013-09-01 16:44:00,
2013-09-01 12:49:00,72.1,68.1,29.59,South,180,0.0,1.0,87,0.00,,,0.00,VWS V14.00,2013-09-01 16:49:00,
2013-09-01 12:54:00,72.1,68.1,29.59,WSW,248,0.0,1.0,87,0.00,,,0.00,VWS V14.00,2013-09-01 16:54:00,
2013-09-01 12:59:00,72.1,68.1,29.59,South,180,0.0,1.0,87,0.00,,,0.00,VWS V14.00,2013-09-01 16:59:00,
2013-09-01 13:04:00,72.0,67.9,29.59,NNE,22,0.0,1.0,87,0.00,,,0.00,VWS V14.00,2013-09-01 17:04:00,
2013-09-01 13:09:00,72.0,67.9,29.59,West,270,0.0,1.0,87,0.00,,,0.00,VWS V14.00,2013-09-01 17:09:00,
2013-09-01 13:14:00,72.0,67.9,29.59,WSW,248,0.0,1.0,87,0.00,,,0.00,VWS V14.00,2013-09-01 17:14:00,
2013-09-01 13:19:00,72.1,68.1,29.59,WSW,248,0.0,1.0,87,0.00,,,0.00,VWS V14.00,2013-09-01 17:19:00,
2013-09-01 13:24:00,72.1,68.4,29.56,NNW,338,0.0,1.0,88,0.00,,,0.00,VWS V14.00,2013-09-01 17:24:00,
2013-09-01 13:29:00,72.1,68.4,29.56,SW,225,0.0,1.0,88,0.00,,,0.00,VWS V14.00,2013-09-01 17:29:00,
2013-09-01 13:34:00,72.1,68.4,29.56,WNW,292,0.0,1.0,88,0.00,,,0.00,VWS V14.00,2013-09-01 17:34:00,
2013-09-01 13:39:00,72.1,68.4,29.59,SW,225,0.0,1.0,88,0.00,,,0.00,VWS V14.00,2013-09-01 17:39:00,
2013-09-01 13:44:00,72.3,68.9,29.59,SSW,202,0.0,1.0,89,0.00,,,0.00,VWS V14.00,2013-09-01 17:44:00,
2013-09-01 13:49:00,72.3,68.9,29.59,WSW,248,0.0,1.0,89,0.00,,,0.00,VWS V14.00,2013-09-01 17:49:00,
2013-09-01 13:54:00,72.5,69.1,29.59,WNW,292,0.0,1.0,89,0.00,,,0.00,VWS V14.00,2013-09-01 17:54:00,
2013-09-01 13:59:00,72.7,69.3,29.59,WSW,248,0.0,1.0,89,0.00,,,0.00,VWS V14.00,2013-09-01 17:59:00,
2013-09-01 14:04:00,72.7,69.3,29.59,SW,225,0.0,1.0,89,0.00,,,0.00,VWS V14.00,2013-09-01 18:04:00,
2013-09-01 14:09:00,72.9,69.8,29.59,SE,135,0.0,1.0,90,0.00,,,0.00,VWS V14.00,2013-09-01 18:09:00,
2013-09-01 14:14:00,73.2,70.1,29.59,West,270,0.0,1.0,90,0.00,,,0.00,VWS V14.00,2013-09-01 18:14:00,
2013-09-01 14:19:00,73.4,70.3,29.59,WSW,248,0.0,1.0,90,0.00,,,0.00,VWS V14.00,2013-09-01 18:19:00,
2013-09-01 14:24:00,73.6,70.5,29.59,SSW,202,0.0,1.0,90,0.00,,,0.00,VWS V14.00,2013-09-01 18:24:00,
2013-09-01 14:29:00,73.8,70.7,29.59,North,0,0.0,1.0,90,0.00,,,0.00,VWS V14.00,2013-09-01 18:29:00,
2013-09-01 14:34:00,73.9,70.8,29.59,SW,225,0.0,1.0,90,0.00,,,0.00,VWS V14.00,2013-09-01 18:34:00,
2013-09-01 14:39:00,73.9,70.8,29.59,North,0,0.0,1.0,90,0.00,,,0.00,VWS V14.00,2013-09-01 18:39:00,
2013-09-01 14:44:00,73.9,70.8,29.59,West,270,0.0,1.0,90,0.00,,,0.00,VWS V14.00,2013-09-01 18:44:00,
2013-09-01 14:49:00,74.1,71.0,29.59,SW,225,0.0,1.0,90,0.00,,,0.00,VWS V14.00,2013-09-01 18:49:00,
2013-09-01 14:54:00,74.5,71.4,29.59,West,270,0.0,1.0,90,0.00,,,0.00,VWS V14.00,2013-09-01 18:54:00,
2013-09-01 14:59:00,74.7,71.5,29.59,NW,315,0.0,1.0,90,0.00,,,0.00,VWS V14.00,2013-09-01 18:59:00,
2013-09-01 15:04:00,75.0,71.9,29.59,SSW,202,0.0,1.0,90,0.00,,,0.00,VWS V14.00,2013-09-01 19:04:00,
2013-09-01 15:09:00,75.0,71.9,29.59,North,0,0.0,1.0,90,0.00,,,0.00,VWS V14.00,2013-09-01 19:09:00,
2013-09-01 15:14:00,75.0,71.9,29.59,NNW,338,0.0,1.0,90,0.00,,,0.00,VWS V14.00,2013-09-01 19:14:00,
2013-09-01 15:19:00,75.2,71.7,29.59,West,270,0.0,1.0,89,0.00,,,0.00,VWS V14.00,2013-09-01 19:19:00,
2013-09-01 15:24:00,75.7,72.6,29.56,North,0,0.0,1.0,90,0.00,,,0.00,VWS V14.00,2013-09-01 19:24:00,
2013-09-01 15:29:00,75.9,72.4,29.56,WSW,248,0.0,1.0,89,0.00,,,0.00,VWS V14.00,2013-09-01 19:29:00,
2013-09-01 15:34:00,76.5,73.0,29.56,NNW,338,0.0,1.0,89,0.00,,,0.00,VWS V14.00,2013-09-01 19:34:00,
2013-09-01 15:39:00,76.6,73.2,29.56,SE,135,0.0,1.0,89,0.00,,,0.00,VWS V14.00,2013-09-01 19:39:00,
2013-09-01 15:44:00,76.8,73.3,29.56,WSW,248,0.0,1.0,89,0.00,,,0.00,VWS V14.00,2013-09-01 19:44:00,
2013-09-01 15:49:00,77.2,73.0,29.56,SSW,202,0.0,1.0,87,0.00,,,0.00,VWS V14.00,2013-09-01 19:49:00,
2013-09-01 15:54:00,77.0,72.5,29.56,WNW,292,0.0,1.0,86,0.00,,,0.00,VWS V14.00,2013-09-01 19:54:00,
2013-09-01 15:59:00,76.6,72.1,29.56,West,270,0.0,1.0,86,0.00,,,0.00,VWS V14.00,2013-09-01 19:59:00,
2013-09-01 16:04:00,76.3,71.8,29.56,WSW,248,0.0,1.0,86,0.00,,,0.00,VWS V14.00,2013-09-01 20:04:00,
2013-09-01 16:09:00,75.9,71.1,29.56,North,0,0.0,1.0,85,0.00,,,0.00,VWS V14.00,2013-09-01 20:09:00,
2013-09-01 16:14:00,75.4,70.6,29.56,NW,315,0.0,1.0,85,0.00,,,0.00,VWS V14.00,2013-09-01 20:14:00,
2013-09-01 16:19:00,75.2,70.4,29.56,ESE,112,0.0,1.0,85,0.00,,,0.00,VWS V14.00,2013-09-01 20:19:00,
2013-09-01 16:24:00,75.2,70.4,29.59,ESE,112,0.0,1.0,85,0.00,,,0.00,VWS V14.00,2013-09-01 20:24:00,
2013-09-01 16:29:00,75.2,70.4,29.59,NNW,338,0.0,1.0,85,0.00,,,0.00,VWS V14.00,2013-09-01 20:29:00,
2013-09-01 16:34:00,75.0,70.2,29.59,SSW,202,0.0,1.0,85,0.00,,,0.00,VWS V14.00,2013-09-01 20:34:00,
2013-09-01 16:39:00,74.7,69.9,29.56,ESE,112,0.0,1.0,85,0.00,,,0.00,VWS V14.00,2013-09-01 20:39:00,
2013-09-01 16:44:00,74.7,70.2,29.56,West,270,0.0,1.0,86,0.00,,,0.00,VWS V14.00,2013-09-01 20:44:00,
2013-09-01 16:49:00,74.7,69.9,29.56,SW,225,0.0,1.0,85,0.00,,,0.00,VWS V14.00,2013-09-01 20:49:00,
2013-09-01 16:54:00,74.7,69.9,29.59,WNW,292,0.0,1.0,85,0.00,,,0.00,VWS V14.00,2013-09-01 20:54:00,
2013-09-01 16:59:00,74.7,69.9,29.59,SW,225,0.0,1.0,85,0.00,,,0.00,VWS V14.00,2013-09-01 20:59:00,
2013-09-01 17:04:00,74.5,69.7,29.59,SE,135,0.0,1.0,85,0.00,,,0.00,VWS V14.00,2013-09-01 21:04:00,
2013-09-01 17:09:00,74.3,69.5,29.59,North,0,0.0,1.0,85,0.00,,,0.00,VWS V14.00,2013-09-01 21:09:00,
2013-09-01 17:14:00,73.9,69.2,29.59,NNW,338,0.0,1.0,85,0.00,,,0.00,VWS V14.00,2013-09-01 21:14:00,
2013-09-01 17:19:00,73.8,69.0,29.59,SSW,202,0.0,1.0,85,0.00,,,0.00,VWS V14.00,2013-09-01 21:19:00,
2013-09-01 17:24:00,73.8,69.0,29.59,ESE,112,0.0,1.0,85,0.00,,,0.00,VWS V14.00,2013-09-01 21:24:00,
2013-09-01 17:29:00,73.8,69.3,29.59,NNW,338,0.0,1.0,86,0.00,,,0.00,VWS V14.00,2013-09-01 21:29:00,
2013-09-01 17:34:00,73.6,69.1,29.59,North,0,0.0,1.0,86,0.00,,,0.00,VWS V14.00,2013-09-01 21:34:00,
2013-09-01 17:39:00,73.6,69.1,29.59,West,270,0.0,1.0,86,0.00,,,0.00,VWS V14.00,2013-09-01 21:39:00,
2013-09-01 17:44:00,73.6,69.1,29.59,SSW,202,0.0,1.0,86,0.00,,,0.00,VWS V14.00,2013-09-01 21:44:00,
2013-09-01 17:49:00,73.6,69.1,29.59,West,270,0.0,1.0,86,0.00,,,0.00,VWS V14.00,2013-09-01 21:49:00,
2013-09-01 17:54:00,73.4,69.0,29.59,East,90,0.0,1.0,86,0.00,,,0.00,VWS V14.00,2013-09-01 21:54:00,
2013-09-01 17:59:00,73.4,69.0,29.59,ESE,112,0.0,1.0,86,0.00,,,0.00,VWS V14.00,2013-09-01 21:59:00,
2013-09-01 18:03:00,73.4,69.0,29.59,South,180,0.0,1.0,86,0.00,,,0.00,VWS V14.00,2013-09-01 22:03:00,
2013-09-01 18:08:00,73.4,69.0,29.59,South,180,0.0,1.0,86,0.00,,,0.00,VWS V14.00,2013-09-01 22:08:00,
2013-09-01 18:13:00,73.4,69.0,29.59,South,180,0.0,1.0,86,0.00,,,0.00,VWS V14.00,2013-09-01 22:13:00,
2013-09-01 18:18:00,73.4,69.0,29.59,South,180,0.0,1.0,86,0.00,,,0.00,VWS V14.00,2013-09-01 22:18:00,
2013-09-01 18:23:00,73.2,68.8,29.59,NNW,338,0.0,1.0,86,0.00,,,0.00,VWS V14.00,2013-09-01 22:23:00,
2013-09-01 18:28:00,73.0,68.6,29.59,NNW,338,0.0,1.0,86,0.00,,,0.00,VWS V14.00,2013-09-01 22:28:00,
2013-09-01 18:33:00,73.0,68.9,29.59,East,90,0.0,1.0,87,0.00,,,0.00,VWS V14.00,2013-09-01 22:33:00,
2013-09-01 18:38:00,72.9,68.8,29.59,NE,45,0.0,1.0,87,0.00,,,0.00,VWS V14.00,2013-09-01 22:38:00,
2013-09-01 18:43:00,72.9,68.8,29.59,East,90,0.0,1.0,87,0.00,,,0.00,VWS V14.00,2013-09-01 22:43:00,
2013-09-01 18:48:00,72.7,68.6,29.59,North,0,0.0,1.0,87,0.00,,,0.00,VWS V14.00,2013-09-01 22:48:00,
2013-09-01 18:53:00,72.7,68.6,29.59,West,270,0.0,1.0,87,0.00,,,0.00,VWS V14.00,2013-09-01 22:53:00,
2013-09-01 18:58:00,72.9,68.8,29.59,WSW,248,0.0,1.0,87,0.00,,,0.00,VWS V14.00,2013-09-01 22:58:00,
2013-09-01 19:03:00,72.9,68.8,29.59,WSW,248,0.0,1.0,87,0.00,,,0.00,VWS V14.00,2013-09-01 23:03:00,
2013-09-01 19:08:00,72.9,68.8,29.59,WSW,248,0.0,1.0,87,0.00,,,0.00,VWS V14.00,2013-09-01 23:08:00,
2013-09-01 19:13:00,72.7,68.6,29.59,WSW,248,0.0,1.0,87,0.00,,,0.00,VWS V14.00,2013-09-01 23:13:00,
2013-09-01 19:18:00,72.5,68.4,29.59,WSW,248,0.0,1.0,87,0.00,,,0.00,VWS V14.00,2013-09-01 23:18:00,
2013-09-01 19:23:00,72.3,68.2,29.59,SSW,202,0.0,1.0,87,0.00,,,0.00,VWS V14.00,2013-09-01 23:23:00,
2013-09-01 19:28:00,72.3,68.2,29.59,SSW,202,0.0,1.0,87,0.00,,,0.00,VWS V14.00,2013-09-01 23:28:00,
2013-09-01 19:33:00,72.3,68.2,29.59,SSW,202,0.0,1.0,87,0.00,,,0.00,VWS V14.00,2013-09-01 23:33:00,
2013-09-01 19:38:00,72.1,68.1,29.59,SSW,202,0.0,1.0,87,0.00,,,0.00,VWS V14.00,2013-09-01 23:38:00,
2013-09-01 19:43:00,72.1,68.1,29.59,SSW,202,0.0,1.0,87,0.00,,,0.00,VWS V14.00,2013-09-01 23:43:00,
2013-09-01 19:48:00,72.1,68.1,29.59,SSW,202,0.0,1.0,87,0.00,,,0.00,VWS V14.00,2013-09-01 23:48:00,
2013-09-01 19:53:00,72.1,68.4,29.59,SSW,202,0.0,1.0,88,0.00,,,0.00,VWS V14.00,2013-09-01 23:53:00,
2013-09-01 19:58:00,72.1,68.4,29.59,SSW,202,0.0,1.0,88,0.00,,,0.00,VWS V14.00,2013-09-01 23:58:00,
2013-09-01 20:03:00,72.1,68.4,29.59,SSW,202,0.0,1.0,88,0.00,,,0.00,VWS V14.00,2013-09-02 00:03:00,
2013-09-01 20:08:00,72.1,68.4,29.59,West,270,0.0,1.0,88,0.00,,,0.00,VWS V14.00,2013-09-02 00:08:00,
2013-09-01 20:13:00,72.1,68.4,29.59,West,270,0.0,1.0,88,0.00,,,0.00,VWS V14.00,2013-09-02 00:13:00,
2013-09-01 20:18:00,72.1,68.4,29.59,West,270,0.0,1.0,88,0.00,,,0.00,VWS V14.00,2013-09-02 00:18:00,
2013-09-01 20:23:00,72.3,68.6,29.59,West,270,0.0,1.0,88,0.00,,,0.00,VWS V14.00,2013-09-02 00:23:00,
2013-09-01 20:28:00,72.3,68.6,29.59,West,270,0.0,1.0,88,0.00,,,0.00,VWS V14.00,2013-09-02 00:28:00,
2013-09-01 20:33:00,72.3,68.9,29.59,West,270,0.0,1.0,89,0.00,,,0.00,VWS V14.00,2013-09-02 00:33:00,
2013-09-01 20:38:00,72.3,68.6,29.59,West,270,0.0,1.0,88,0.00,,,0.00,VWS V14.00,2013-09-02 00:38:00,
2013-09-01 20:43:00,72.1,68.7,29.62,West,270,0.0,1.0,89,0.00,,,0.00,VWS V14.00,2013-09-02 00:43:00,
2013-09-01 20:48:00,72.1,68.7,29.62,West,270,0.0,1.0,89,0.00,,,0.00,VWS V14.00,2013-09-02 00:48:00,
2013-09-01 20:53:00,72.1,68.7,29.62,West,270,0.0,1.0,89,0.00,,,0.00,VWS V14.00,2013-09-02 00:53:00,
2013-09-01 20:58:00,72.1,68.4,29.62,West,270,0.0,1.0,88,0.00,,,0.00,VWS V14.00,2013-09-02 00:58:00,
2013-09-01 21:03:00,72.1,68.4,29.62,West,270,0.0,1.0,88,0.00,,,0.00,VWS V14.00,2013-09-02 01:03:00,
2013-09-01 21:08:00,72.1,68.4,29.62,NNW,338,0.0,1.0,88,0.00,,,0.00,VWS V14.00,2013-09-02 01:08:00,
2013-09-01 21:13:00,72.0,68.2,29.62,NNW,338,0.0,1.0,88,0.00,,,0.00,VWS V14.00,2013-09-02 01:13:00,
2013-09-01 21:18:00,72.1,68.4,29.62,NNW,338,0.0,1.0,88,0.00,,,0.00,VWS V14.00,2013-09-02 01:18:00,
2013-09-01 21:23:00,72.1,68.4,29.62,NNW,338,0.0,1.0,88,0.00,,,0.00,VWS V14.00,2013-09-02 01:23:00,
2013-09-01 21:28:00,72.1,68.4,29.62,NNW,338,0.0,1.0,88,0.00,,,0.00,VWS V14.00,2013-09-02 01:28:00,
2013-09-01 21:33:00,72.0,68.2,29.62,NNW,338,0.0,1.0,88,0.00,,,0.00,VWS V14.00,2013-09-02 01:33:00,
2013-09-01 21:38:00,72.0,68.2,29.62,NNW,338,0.0,1.0,88,0.00,,,0.00,VWS V14.00,2013-09-02 01:38:00,
2013-09-01 21:43:00,72.0,68.2,29.62,NNW,338,0.0,1.0,88,0.00,,,0.00,VWS V14.00,2013-09-02 01:43:00,
2013-09-01 21:48:00,72.0,68.2,29.62,NNW,338,0.0,1.0,88,0.00,,,0.00,VWS V14.00,2013-09-02 01:48:00,
2013-09-01 21:53:00,72.0,68.2,29.62,NNW,338,0.0,1.0,88,0.00,,,0.00,VWS V14.00,2013-09-02 01:53:00,
2013-09-01 21:58:00,72.0,68.2,29.62,SW,225,0.0,1.0,88,0.00,,,0.00,VWS V14.00,2013-09-02 01:58:00,
2013-09-01 22:03:00,72.1,68.7,29.62,WNW,292,0.0,1.0,89,0.00,,,0.00,VWS V14.00,2013-09-02 02:03:00,
2013-09-01 22:08:00,72.1,68.7,29.62,WSW,248,0.0,1.0,89,0.00,,,0.00,VWS V14.00,2013-09-02 02:08:00,
2013-09-01 22:13:00,72.1,68.7,29.62,SW,225,0.0,1.0,89,0.00,,,0.00,VWS V14.00,2013-09-02 02:13:00,
2013-09-01 22:18:00,72.1,68.7,29.62,SW,225,0.0,1.0,89,0.00,,,0.00,VWS V14.00,2013-09-02 02:18:00,
2013-09-01 22:23:00,72.1,68.7,29.62,SW,225,0.0,1.0,89,0.00,,,0.00,VWS V14.00,2013-09-02 02:23:00,
2013-09-01 22:28:00,72.1,69.1,29.62,SW,225,0.0,1.0,90,0.00,,,0.00,VWS V14.00,2013-09-02 02:28:00,
2013-09-01 22:33:00,72.1,69.1,29.62,West,270,0.0,1.0,90,0.00,,,0.00,VWS V14.00,2013-09-02 02:33:00,
2013-09-01 22:38:00,72.1,69.1,29.62,WSW,248,0.0,1.0,90,0.00,,,0.00,VWS V14.00,2013-09-02 02:38:00,
2013-09-01 22:43:00,72.1,69.1,29.62,SSE,158,0.0,1.0,90,0.00,,,0.00,VWS V14.00,2013-09-02 02:43:00,
2013-09-01 22:48:00,72.1,69.1,29.62,SW,225,0.0,1.0,90,0.00,,,0.00,VWS V14.00,2013-09-02 02:48:00,
2013-09-01 22:53:00,72.3,69.2,29.62,NNE,22,0.0,1.0,90,0.00,,,0.00,VWS V14.00,2013-09-02 02:53:00,
2013-09-01 22:58:00,72.3,69.6,29.62,WSW,248,0.0,1.0,91,0.00,,,0.00,VWS V14.00,2013-09-02 02:58:00,
2013-09-01 23:03:00,72.5,69.7,29.62,WSW,248,0.0,1.0,91,0.00,,,0.00,VWS V14.00,2013-09-02 03:03:00,
2013-09-01 23:08:00,72.5,69.7,29.62,SW,225,0.0,1.0,91,0.00,,,0.00,VWS V14.00,2013-09-02 03:08:00,
2013-09-01 23:13:00,72.5,69.7,29.62,SW,225,0.0,1.0,91,0.00,,,0.00,VWS V14.00,2013-09-02 03:13:00,
2013-09-01 23:18:00,72.7,69.9,29.62,WSW,248,0.0,1.0,91,0.00,,,0.00,VWS V14.00,2013-09-02 03:18:00,
2013-09-01 23:23:00,72.7,69.9,29.62,NW,315,0.0,1.0,91,0.00,,,0.00,VWS V14.00,2013-09-02 03:23:00,
2013-09-01 23:28:00,72.7,69.9,29.62,WSW,248,0.0,1.0,91,0.00,,,0.00,VWS V14.00,2013-09-02 03:28:00,
2013-09-01 23:33:00,72.7,69.9,29.62,WSW,248,0.0,1.0,91,0.00,,,0.00,VWS V14.00,2013-09-02 03:33:00,
2013-09-01 23:38:00,72.9,70.1,29.62,WNW,292,0.0,1.0,91,0.00,,,0.00,VWS V14.00,2013-09-02 03:38:00,
2013-09-01 23:43:00,72.9,69.8,29.62,WSW,248,0.0,1.0,90,0.00,,,0.00,VWS V14.00,2013-09-02 03:43:00,
2013-09-01 23:48:00,72.9,69.8,29.62,SW,225,0.0,1.0,90,0.00,,,0.00,VWS V14.00,2013-09-02 03:48:00,
2013-09-01 23:53:00,72.9,69.8,29.62,WSW,248,0.0,1.0,90,0.00,,,0.00,VWS V14.00,2013-09-02 03:53:00,
2013-09-01 23:58:00,73.0,69.9,29.62,SSE,158,0.0,1.0,90,0.00,,,0.00,VWS V14.00,2013-09-02 03:58:00,